sensor_id;sensor_type;location;lat;lon;timestamp;pressure;altitude;pressure_sealevel;temperature;humidity
73016;BME280;61893;50.074;14.440;2023-05-20T00:01:27;99020.59;;;9.92;92.13
73016;BME280;61893;50.074;14.440;2023-05-20T00:03:52;99012.63;;;9.92;93.13
73016;BME280;61893;50.074;14.440;2023-05-20T00:06:18;99015.28;;;9.92;93.21
73016;BME280;61893;50.074;14.440;2023-05-20T00:08:44;99013.72;;;9.80;93.61
73016;BME280;61893;50.074;14.440;2023-05-20T00:11:09;99009.06;;;9.73;94.06
73016;BME280;61893;50.074;14.440;2023-05-20T00:13:37;99008.84;;;9.85;93.52
73016;BME280;61893;50.074;14.440;2023-05-20T00:16:04;99015.25;;;9.73;94.45
73016;BME280;61893;50.074;14.440;2023-05-20T00:18:30;99011.75;;;9.82;93.92
73016;BME280;61893;50.074;14.440;2023-05-20T00:20:57;99008.84;;;9.85;93.65
73016;BME280;61893;50.074;14.440;2023-05-20T00:23:23;99001.34;;;9.69;94.38
73016;BME280;61893;50.074;14.440;2023-05-20T00:25:49;99012.03;;;9.79;94.73
73016;BME280;61893;50.074;14.440;2023-05-20T00:28:15;99012.19;;;9.87;94.05
73016;BME280;61893;50.074;14.440;2023-05-20T00:30:41;99013.44;;;9.83;93.85
73016;BME280;61893;50.074;14.440;2023-05-20T00:33:07;99015.66;;;9.78;94.06
73016;BME280;61893;50.074;14.440;2023-05-20T00:35:32;99010.38;;;9.88;93.77
73016;BME280;61893;50.074;14.440;2023-05-20T00:37:58;99014.28;;;9.84;94.23
73016;BME280;61893;50.074;14.440;2023-05-20T00:40:24;99010.66;;;9.95;93.23
73016;BME280;61893;50.074;14.440;2023-05-20T00:42:50;99013.75;;;10.00;93.20
73016;BME280;61893;50.074;14.440;2023-05-20T00:45:16;99006.63;;;10.10;92.83
73016;BME280;61893;50.074;14.440;2023-05-20T00:47:42;99007.19;;;10.04;92.46
73016;BME280;61893;50.074;14.440;2023-05-20T00:50:09;99007.63;;;10.09;92.62
73016;BME280;61893;50.074;14.440;2023-05-20T00:52:36;99003.00;;;10.11;92.58
73016;BME280;61893;50.074;14.440;2023-05-20T00:55:02;99008.16;;;10.03;92.83
73016;BME280;61893;50.074;14.440;2023-05-20T00:57:28;98998.53;;;10.02;92.41
73016;BME280;61893;50.074;14.440;2023-05-20T00:59:54;99002.13;;;9.91;93.68
73016;BME280;61893;50.074;14.440;2023-05-20T01:02:20;98999.19;;;9.94;93.20
73016;BME280;61893;50.074;14.440;2023-05-20T01:04:46;99002.69;;;9.95;93.24
73016;BME280;61893;50.074;14.440;2023-05-20T01:07:14;98993.31;;;10.00;93.01
73016;BME280;61893;50.074;14.440;2023-05-20T01:09:40;98995.13;;;9.90;93.50
73016;BME280;61893;50.074;14.440;2023-05-20T01:12:25;98982.97;;;9.87;93.86
73016;BME280;61893;50.074;14.440;2023-05-20T01:15:00;98977.94;;;9.84;94.37
73016;BME280;61893;50.074;14.440;2023-05-20T01:17:31;98977.34;;;9.81;94.11
73016;BME280;61893;50.074;14.440;2023-05-20T01:20:00;98990.94;;;9.87;93.20
73016;BME280;61893;50.074;14.440;2023-05-20T01:22:27;98986.59;;;9.86;93.82
73016;BME280;61893;50.074;14.440;2023-05-20T01:24:53;98981.00;;;9.89;93.62
73016;BME280;61893;50.074;14.440;2023-05-20T01:27:20;98969.25;;;9.82;93.60
73016;BME280;61893;50.074;14.440;2023-05-20T01:29:48;98973.56;;;9.83;93.75
73016;BME280;61893;50.074;14.440;2023-05-20T01:32:40;98977.88;;;9.75;94.40
73016;BME280;61893;50.074;14.440;2023-05-20T01:35:06;98979.03;;;9.82;94.69
73016;BME280;61893;50.074;14.440;2023-05-20T01:37:35;98973.84;;;9.80;94.22
73016;BME280;61893;50.074;14.440;2023-05-20T01:40:04;98967.97;;;9.77;94.46
73016;BME280;61893;50.074;14.440;2023-05-20T01:42:31;98974.84;;;9.79;94.61
73016;BME280;61893;50.074;14.440;2023-05-20T01:44:58;98964.16;;;9.69;95.11
73016;BME280;61893;50.074;14.440;2023-05-20T01:47:24;98961.38;;;9.71;94.79
73016;BME280;61893;50.074;14.440;2023-05-20T01:49:50;98959.13;;;9.66;95.36
73016;BME280;61893;50.074;14.440;2023-05-20T01:52:22;98963.09;;;9.82;94.38
73016;BME280;61893;50.074;14.440;2023-05-20T01:54:48;98955.91;;;9.63;95.11
73016;BME280;61893;50.074;14.440;2023-05-20T01:57:19;98954.69;;;9.77;94.68
73016;BME280;61893;50.074;14.440;2023-05-20T01:59:45;98957.19;;;9.78;94.84
73016;BME280;61893;50.074;14.440;2023-05-20T02:02:12;98951.88;;;9.78;94.24
73016;BME280;61893;50.074;14.440;2023-05-20T02:04:38;98953.41;;;9.81;94.47
73016;BME280;61893;50.074;14.440;2023-05-20T02:07:04;98964.88;;;9.72;94.70
73016;BME280;61893;50.074;14.440;2023-05-20T02:09:29;98963.06;;;9.72;95.29
73016;BME280;61893;50.074;14.440;2023-05-20T02:11:55;98964.03;;;9.81;94.89
73016;BME280;61893;50.074;14.440;2023-05-20T02:14:21;98969.63;;;9.78;94.55
73016;BME280;61893;50.074;14.440;2023-05-20T02:16:47;98973.72;;;9.82;94.93
73016;BME280;61893;50.074;14.440;2023-05-20T02:19:12;98964.72;;;9.63;95.26
73016;BME280;61893;50.074;14.440;2023-05-20T02:21:40;98959.13;;;9.66;95.27
73016;BME280;61893;50.074;14.440;2023-05-20T02:24:06;98972.84;;;9.72;95.40
73016;BME280;61893;50.074;14.440;2023-05-20T02:26:33;98968.19;;;9.64;95.41
73016;BME280;61893;50.074;14.440;2023-05-20T02:29:00;98969.19;;;9.73;95.31
73016;BME280;61893;50.074;14.440;2023-05-20T02:31:26;98969.91;;;9.65;95.28
73016;BME280;61893;50.074;14.440;2023-05-20T02:33:51;98973.09;;;9.59;96.16
73016;BME280;61893;50.074;14.440;2023-05-20T02:36:17;98959.81;;;9.59;95.77
73016;BME280;61893;50.074;14.440;2023-05-20T02:38:44;98954.25;;;9.72;95.67
73016;BME280;61893;50.074;14.440;2023-05-20T02:41:10;98946.53;;;9.59;95.66
73016;BME280;61893;50.074;14.440;2023-05-20T02:43:35;98946.66;;;9.57;96.37
73016;BME280;61893;50.074;14.440;2023-05-20T02:46:02;98938.84;;;9.65;96.14
73016;BME280;61893;50.074;14.440;2023-05-20T02:48:27;98942.50;;;9.64;95.79
73016;BME280;61893;50.074;14.440;2023-05-20T02:50:53;98948.31;;;9.48;96.71
73016;BME280;61893;50.074;14.440;2023-05-20T02:53:19;98940.38;;;9.58;96.59
73016;BME280;61893;50.074;14.440;2023-05-20T02:55:46;98949.88;;;9.61;95.98
73016;BME280;61893;50.074;14.440;2023-05-20T02:58:15;98955.72;;;9.45;97.22
73016;BME280;61893;50.074;14.440;2023-05-20T03:00:42;98954.19;;;9.52;96.46
73016;BME280;61893;50.074;14.440;2023-05-20T03:03:08;98944.56;;;9.51;96.36
73016;BME280;61893;50.074;14.440;2023-05-20T03:05:38;98947.19;;;9.41;96.71
73016;BME280;61893;50.074;14.440;2023-05-20T03:08:06;98943.53;;;9.42;97.65
73016;BME280;61893;50.074;14.440;2023-05-20T03:10:38;98936.81;;;9.38;97.32
73016;BME280;61893;50.074;14.440;2023-05-20T03:13:04;98940.06;;;9.52;97.25
73016;BME280;61893;50.074;14.440;2023-05-20T03:15:36;98943.94;;;9.38;97.20
73016;BME280;61893;50.074;14.440;2023-05-20T03:18:03;98945.03;;;9.35;97.97
73016;BME280;61893;50.074;14.440;2023-05-20T03:20:29;98943.00;;;9.39;98.13
73016;BME280;61893;50.074;14.440;2023-05-20T03:22:54;98945.75;;;9.28;98.67
73016;BME280;61893;50.074;14.440;2023-05-20T03:25:21;98949.78;;;9.32;98.38
73016;BME280;61893;50.074;14.440;2023-05-20T03:27:47;98949.25;;;9.38;98.20
73016;BME280;61893;50.074;14.440;2023-05-20T03:30:13;98956.66;;;9.34;98.77
73016;BME280;61893;50.074;14.440;2023-05-20T03:32:38;98953.91;;;9.15;99.19
73016;BME280;61893;50.074;14.440;2023-05-20T03:35:05;98954.91;;;9.14;99.96
73016;BME280;61893;50.074;14.440;2023-05-20T03:37:31;98948.81;;;9.33;99.08
73016;BME280;61893;50.074;14.440;2023-05-20T03:39:57;98946.31;;;9.31;99.15
73016;BME280;61893;50.074;14.440;2023-05-20T03:42:22;98950.31;;;9.16;99.25
73016;BME280;61893;50.074;14.440;2023-05-20T03:44:48;98955.66;;;9.25;99.20
73016;BME280;61893;50.074;14.440;2023-05-20T03:47:14;98961.16;;;9.43;98.59
73016;BME280;61893;50.074;14.440;2023-05-20T03:49:40;98962.25;;;9.41;98.07
73016;BME280;61893;50.074;14.440;2023-05-20T03:52:06;98963.34;;;9.29;98.45
73016;BME280;61893;50.074;14.440;2023-05-20T03:54:32;98967.75;;;9.49;97.84
73016;BME280;61893;50.074;14.440;2023-05-20T03:56:59;98959.66;;;9.51;97.58
73016;BME280;61893;50.074;14.440;2023-05-20T03:59:26;98957.84;;;9.51;97.37
73016;BME280;61893;50.074;14.440;2023-05-20T04:01:52;98968.09;;;9.65;97.28
73016;BME280;61893;50.074;14.440;2023-05-20T04:04:17;98962.19;;;9.62;96.46
73016;BME280;61893;50.074;14.440;2023-05-20T04:06:43;98962.78;;;9.75;96.25
73016;BME280;61893;50.074;14.440;2023-05-20T04:09:10;98967.69;;;9.80;95.54
73016;BME280;61893;50.074;14.440;2023-05-20T04:11:35;98962.66;;;9.86;95.01
73016;BME280;61893;50.074;14.440;2023-05-20T04:14:01;98957.22;;;9.98;94.73
73016;BME280;61893;50.074;14.440;2023-05-20T04:16:27;98962.97;;;10.03;93.94
73016;BME280;61893;50.074;14.440;2023-05-20T04:18:54;98971.34;;;9.88;94.79
73016;BME280;61893;50.074;14.440;2023-05-20T04:21:20;98965.94;;;10.19;93.73
73016;BME280;61893;50.074;14.440;2023-05-20T04:23:46;98966.50;;;11.18;88.15
73016;BME280;61893;50.074;14.440;2023-05-20T04:26:12;98966.09;;;12.06;83.75
73016;BME280;61893;50.074;14.440;2023-05-20T04:28:38;98966.72;;;12.79;79.32
73016;BME280;61893;50.074;14.440;2023-05-20T04:31:07;98958.91;;;13.38;76.63
73016;BME280;61893;50.074;14.440;2023-05-20T04:33:32;98961.19;;;13.59;74.56
73016;BME280;61893;50.074;14.440;2023-05-20T04:36:02;98966.56;;;14.26;71.49
73016;BME280;61893;50.074;14.440;2023-05-20T04:38:30;98955.69;;;14.93;69.22
73016;BME280;61893;50.074;14.440;2023-05-20T04:40:59;98947.50;;;15.42;66.52
73016;BME280;61893;50.074;14.440;2023-05-20T04:43:27;98952.94;;;15.34;66.71
73016;BME280;61893;50.074;14.440;2023-05-20T04:45:56;98942.81;;;14.39;69.72
73016;BME280;61893;50.074;14.440;2023-05-20T04:48:22;98944.19;;;14.52;69.44
73016;BME280;61893;50.074;14.440;2023-05-20T04:50:48;98945.94;;;15.17;67.04
73016;BME280;61893;50.074;14.440;2023-05-20T04:53:15;98953.38;;;14.66;68.18
73016;BME280;61893;50.074;14.440;2023-05-20T04:55:41;98956.25;;;15.84;64.25
73016;BME280;61893;50.074;14.440;2023-05-20T04:58:08;98953.56;;;16.15;62.45
73016;BME280;61893;50.074;14.440;2023-05-20T05:00:42;98958.78;;;15.85;63.53
73016;BME280;61893;50.074;14.440;2023-05-20T05:03:09;98950.06;;;16.75;61.20
73016;BME280;61893;50.074;14.440;2023-05-20T05:05:40;98951.53;;;17.01;60.10
73016;BME280;61893;50.074;14.440;2023-05-20T05:08:10;98956.41;;;17.20;58.82
73016;BME280;61893;50.074;14.440;2023-05-20T05:10:36;98948.38;;;16.36;60.67
73016;BME280;61893;50.074;14.440;2023-05-20T05:13:02;98949.47;;;16.88;59.47
73016;BME280;61893;50.074;14.440;2023-05-20T05:15:28;98946.56;;;16.75;59.63
73016;BME280;61893;50.074;14.440;2023-05-20T05:17:54;98947.91;;;15.79;63.09
73016;BME280;61893;50.074;14.440;2023-05-20T05:20:21;98938.41;;;17.06;59.29
73016;BME280;61893;50.074;14.440;2023-05-20T05:22:46;98943.50;;;17.60;57.44
73016;BME280;61893;50.074;14.440;2023-05-20T05:25:14;98943.19;;;17.70;56.84
73016;BME280;61893;50.074;14.440;2023-05-20T05:27:43;98941.44;;;16.19;61.13
73016;BME280;61893;50.074;14.440;2023-05-20T05:30:09;98943.72;;;16.07;62.16
73016;BME280;61893;50.074;14.440;2023-05-20T05:32:38;98941.03;;;16.07;62.42
73016;BME280;61893;50.074;14.440;2023-05-20T05:35:04;98929.53;;;16.82;59.69
73016;BME280;61893;50.074;14.440;2023-05-20T05:37:29;98930.03;;;16.86;58.87
73016;BME280;61893;50.074;14.440;2023-05-20T05:39:55;98928.63;;;18.15;55.50
73016;BME280;61893;50.074;14.440;2023-05-20T05:42:21;98933.69;;;18.04;55.08
73016;BME280;61893;50.074;14.440;2023-05-20T05:44:47;98932.38;;;17.99;55.19
73016;BME280;61893;50.074;14.440;2023-05-20T05:47:13;98928.09;;;17.09;58.30
73016;BME280;61893;50.074;14.440;2023-05-20T05:49:39;98941.38;;;17.41;57.55
73016;BME280;61893;50.074;14.440;2023-05-20T05:52:06;98938.34;;;17.95;55.53
73016;BME280;61893;50.074;14.440;2023-05-20T05:54:32;98944.72;;;17.94;55.51
73016;BME280;61893;50.074;14.440;2023-05-20T05:56:58;98944.66;;;16.83;58.48
73016;BME280;61893;50.074;14.440;2023-05-20T05:59:23;98949.63;;;16.26;60.61
73016;BME280;61893;50.074;14.440;2023-05-20T06:01:49;98940.25;;;17.05;58.60
73016;BME280;61893;50.074;14.440;2023-05-20T06:04:15;98927.28;;;17.09;58.63
73016;BME280;61893;50.074;14.440;2023-05-20T06:06:41;98936.03;;;16.88;58.95
73016;BME280;61893;50.074;14.440;2023-05-20T06:09:07;98936.50;;;16.31;60.93
73016;BME280;61893;50.074;14.440;2023-05-20T06:11:32;98924.09;;;16.67;60.13
73016;BME280;61893;50.074;14.440;2023-05-20T06:14:01;98938.50;;;15.83;62.48
73016;BME280;61893;50.074;14.440;2023-05-20T06:16:30;98933.09;;;15.51;63.88
73016;BME280;61893;50.074;14.440;2023-05-20T06:18:58;98925.63;;;16.47;60.82
73016;BME280;61893;50.074;14.440;2023-05-20T06:21:35;98941.69;;;16.78;59.86
73016;BME280;61893;50.074;14.440;2023-05-20T06:24:04;98928.16;;;18.33;55.40
73016;BME280;61893;50.074;14.440;2023-05-20T06:26:33;98922.47;;;18.93;53.12
73016;BME280;61893;50.074;14.440;2023-05-20T06:29:02;98938.13;;;18.54;53.67
73016;BME280;61893;50.074;14.440;2023-05-20T06:31:35;98931.34;;;17.34;57.42
73016;BME280;61893;50.074;14.440;2023-05-20T06:34:04;98935.28;;;16.79;59.47
73016;BME280;61893;50.074;14.440;2023-05-20T06:36:31;98943.03;;;18.72;53.92
73016;BME280;61893;50.074;14.440;2023-05-20T06:38:56;98946.19;;;19.32;51.76
73016;BME280;61893;50.074;14.440;2023-05-20T06:41:28;98943.69;;;20.40;48.92
73016;BME280;61893;50.074;14.440;2023-05-20T06:44:09;98937.44;;;20.19;49.20
73016;BME280;61893;50.074;14.440;2023-05-20T06:46:35;98942.91;;;20.99;47.17
73016;BME280;61893;50.074;14.440;2023-05-20T06:49:00;98934.50;;;21.61;45.40
73016;BME280;61893;50.074;14.440;2023-05-20T06:51:32;98927.88;;;18.43;53.67
73016;BME280;61893;50.074;14.440;2023-05-20T06:53:58;98929.19;;;18.11;55.00
73016;BME280;61893;50.074;14.440;2023-05-20T06:56:24;98924.94;;;19.22;52.08
73016;BME280;61893;50.074;14.440;2023-05-20T06:58:54;98924.16;;;20.38;49.02
73016;BME280;61893;50.074;14.440;2023-05-20T07:01:34;98926.06;;;21.04;47.09
73016;BME280;61893;50.074;14.440;2023-05-20T07:04:15;98923.72;;;21.47;46.17
73016;BME280;61893;50.074;14.440;2023-05-20T07:06:41;98919.22;;;20.81;47.06
73016;BME280;61893;50.074;14.440;2023-05-20T07:09:21;98915.84;;;21.19;46.17
73016;BME280;61893;50.074;14.440;2023-05-20T07:12:02;98914.28;;;21.56;46.28
73016;BME280;61893;50.074;14.440;2023-05-20T07:14:29;98918.19;;;20.89;47.26
73016;BME280;61893;50.074;14.440;2023-05-20T07:17:03;98910.09;;;20.69;47.71
73016;BME280;61893;50.074;14.440;2023-05-20T07:19:46;98906.47;;;21.22;46.37
73016;BME280;61893;50.074;14.440;2023-05-20T07:22:22;98901.53;;;21.70;45.74
73016;BME280;61893;50.074;14.440;2023-05-20T07:24:48;98904.31;;;21.50;46.51
73016;BME280;61893;50.074;14.440;2023-05-20T07:27:17;98899.63;;;22.16;44.27
73016;BME280;61893;50.074;14.440;2023-05-20T07:29:49;98903.13;;;22.23;44.25
73016;BME280;61893;50.074;14.440;2023-05-20T07:32:25;98901.47;;;22.79;43.02
73016;BME280;61893;50.074;14.440;2023-05-20T07:35:05;98901.16;;;22.43;44.14
73016;BME280;61893;50.074;14.440;2023-05-20T07:37:34;98893.81;;;25.64;37.22
73016;BME280;61893;50.074;14.440;2023-05-20T07:40:18;98891.72;;;24.60;38.92
73016;BME280;61893;50.074;14.440;2023-05-20T07:43:15;98890.44;;;24.63;38.76
73016;BME280;61893;50.074;14.440;2023-05-20T07:45:50;98886.56;;;25.17;37.68
73016;BME280;61893;50.074;14.440;2023-05-20T07:48:16;98895.22;;;27.42;33.57
73016;BME280;61893;50.074;14.440;2023-05-20T07:50:44;98879.47;;;27.10;34.49
73016;BME280;61893;50.074;14.440;2023-05-20T07:53:20;98877.75;;;26.37;34.98
73016;BME280;61893;50.074;14.440;2023-05-20T07:55:49;98876.22;;;23.40;40.66
73016;BME280;61893;50.074;14.440;2023-05-20T07:58:15;98878.03;;;22.34;43.69
73016;BME280;61893;50.074;14.440;2023-05-20T08:00:40;98874.38;;;22.22;44.19
73016;BME280;61893;50.074;14.440;2023-05-20T08:03:09;98866.19;;;23.41;41.89
73016;BME280;61893;50.074;14.440;2023-05-20T08:05:40;98873.97;;;24.04;39.99
73016;BME280;61893;50.074;14.440;2023-05-20T08:08:06;98864.91;;;24.76;38.70
73016;BME280;61893;50.074;14.440;2023-05-20T08:10:32;98858.06;;;23.04;42.05
73016;BME280;61893;50.074;14.440;2023-05-20T08:12:58;98860.63;;;24.56;39.30
73016;BME280;61893;50.074;14.440;2023-05-20T08:15:24;98856.59;;;25.70;36.99
73016;BME280;61893;50.074;14.440;2023-05-20T08:17:50;98852.22;;;24.93;38.81
73016;BME280;61893;50.074;14.440;2023-05-20T08:20:16;98851.28;;;24.99;38.21
73016;BME280;61893;50.074;14.440;2023-05-20T08:22:43;98851.34;;;26.09;36.53
73016;BME280;61893;50.074;14.440;2023-05-20T08:25:09;98857.91;;;26.92;35.27
73016;BME280;61893;50.074;14.440;2023-05-20T08:27:36;98849.22;;;26.27;36.15
73016;BME280;61893;50.074;14.440;2023-05-20T08:30:03;98849.28;;;25.99;36.80
73016;BME280;61893;50.074;14.440;2023-05-20T08:32:29;98858.09;;;26.06;36.12
73016;BME280;61893;50.074;14.440;2023-05-20T08:34:56;98849.31;;;25.75;36.94
73016;BME280;61893;50.074;14.440;2023-05-20T08:37:22;98860.50;;;26.02;36.44
73016;BME280;61893;50.074;14.440;2023-05-20T08:40:05;98854.00;;;24.76;39.54
73016;BME280;61893;50.074;14.440;2023-05-20T08:42:34;98856.25;;;26.91;35.18
73016;BME280;61893;50.074;14.440;2023-05-20T08:45:00;98853.22;;;27.26;34.32
73016;BME280;61893;50.074;14.440;2023-05-20T08:48:15;98840.78;;;24.25;40.06
73016;BME280;61893;50.074;14.440;2023-05-20T08:50:50;98837.88;;;24.39;40.12
73016;BME280;61893;50.074;14.440;2023-05-20T08:53:17;98837.38;;;24.30;40.36
73016;BME280;61893;50.074;14.440;2023-05-20T08:56:03;98835.91;;;24.81;39.50
73016;BME280;61893;50.074;14.440;2023-05-20T08:58:32;98835.91;;;25.16;39.05
73016;BME280;61893;50.074;14.440;2023-05-20T09:00:58;98837.97;;;26.24;37.03
73016;BME280;61893;50.074;14.440;2023-05-20T09:03:24;98824.59;;;26.39;36.38
73016;BME280;61893;50.074;14.440;2023-05-20T09:06:01;98829.50;;;25.92;37.54
73016;BME280;61893;50.074;14.440;2023-05-20T09:08:35;98831.28;;;25.17;39.29
73016;BME280;61893;50.074;14.440;2023-05-20T09:11:08;98828.97;;;25.66;38.27
73016;BME280;61893;50.074;14.440;2023-05-20T09:13:58;98830.31;;;25.00;39.53
73016;BME280;61893;50.074;14.440;2023-05-20T09:16:27;98828.03;;;24.26;41.28
73016;BME280;61893;50.074;14.440;2023-05-20T09:18:56;98830.19;;;25.30;39.66
73016;BME280;61893;50.074;14.440;2023-05-20T09:21:28;98822.50;;;25.96;37.92
73016;BME280;61893;50.074;14.440;2023-05-20T09:23:55;98822.28;;;25.05;39.66
73016;BME280;61893;50.074;14.440;2023-05-20T09:26:28;98823.38;;;25.84;38.54
73016;BME280;61893;50.074;14.440;2023-05-20T09:29:09;98831.28;;;26.32;37.51
73016;BME280;61893;50.074;14.440;2023-05-20T09:31:35;98831.34;;;26.03;38.13
73016;BME280;61893;50.074;14.440;2023-05-20T09:34:03;98823.13;;;24.58;41.23
73016;BME280;61893;50.074;14.440;2023-05-20T09:36:38;98818.19;;;23.71;43.50
73016;BME280;61893;50.074;14.440;2023-05-20T09:39:07;98810.25;;;23.70;43.32
73016;BME280;61893;50.074;14.440;2023-05-20T09:42:23;98817.03;;;23.30;44.56
73016;BME280;61893;50.074;14.440;2023-05-20T09:45:09;98819.75;;;23.30;45.14
73016;BME280;61893;50.074;14.440;2023-05-20T09:47:38;98815.25;;;23.54;45.01
73016;BME280;61893;50.074;14.440;2023-05-20T09:50:08;98818.13;;;23.78;44.33
73016;BME280;61893;50.074;14.440;2023-05-20T09:52:43;98808.69;;;22.95;46.55
73016;BME280;61893;50.074;14.440;2023-05-20T09:55:10;98816.97;;;23.19;45.95
73016;BME280;61893;50.074;14.440;2023-05-20T09:57:36;98810.25;;;22.59;47.17
73016;BME280;61893;50.074;14.440;2023-05-20T10:00:04;98792.69;;;22.43;48.00
73016;BME280;61893;50.074;14.440;2023-05-20T10:02:49;98800.06;;;22.55;48.04
73016;BME280;61893;50.074;14.440;2023-05-20T10:05:22;98789.75;;;22.63;48.21
73016;BME280;61893;50.074;14.440;2023-05-20T10:08:17;98786.25;;;23.36;46.14
73016;BME280;61893;50.074;14.440;2023-05-20T10:16:53;98779.88;;;22.51;48.65
73016;BME280;61893;50.074;14.440;2023-05-20T10:19:28;98774.47;;;22.69;48.24
73016;BME280;61893;50.074;14.440;2023-05-20T10:22:10;98776.84;;;22.40;48.95
73016;BME280;61893;50.074;14.440;2023-05-20T10:24:45;98782.16;;;22.29;49.23
73016;BME280;61893;50.074;14.440;2023-05-20T10:27:16;98775.16;;;21.57;51.08
73016;BME280;61893;50.074;14.440;2023-05-20T10:29:43;98774.03;;;22.03;50.15
73016;BME280;61893;50.074;14.440;2023-05-20T10:32:10;98770.00;;;22.13;49.89
73016;BME280;61893;50.074;14.440;2023-05-20T10:34:46;98772.56;;;22.33;49.51
73016;BME280;61893;50.074;14.440;2023-05-20T10:37:22;98760.38;;;22.60;49.30
73016;BME280;61893;50.074;14.440;2023-05-20T10:39:48;98760.28;;;22.48;49.50
73016;BME280;61893;50.074;14.440;2023-05-20T10:42:14;98764.81;;;22.36;49.47
73016;BME280;61893;50.074;14.440;2023-05-20T10:44:41;98753.38;;;22.71;49.08
73016;BME280;61893;50.074;14.440;2023-05-20T10:47:07;98769.94;;;22.63;49.52
73016;BME280;61893;50.074;14.440;2023-05-20T10:49:33;98757.81;;;22.47;49.69
73016;BME280;61893;50.074;14.440;2023-05-20T10:52:03;98755.19;;;22.59;49.26
73016;BME280;61893;50.074;14.440;2023-05-20T10:54:34;98741.13;;;22.25;50.16
73016;BME280;61893;50.074;14.440;2023-05-20T10:57:10;98736.19;;;22.40;49.91
73016;BME280;61893;50.074;14.440;2023-05-20T10:59:44;98738.22;;;22.45;49.84
73016;BME280;61893;50.074;14.440;2023-05-20T11:02:14;98735.00;;;22.73;49.25
73016;BME280;61893;50.074;14.440;2023-05-20T11:04:44;98729.34;;;22.75;49.44
73016;BME280;61893;50.074;14.440;2023-05-20T11:07:10;98736.06;;;22.54;49.39
73016;BME280;61893;50.074;14.440;2023-05-20T11:09:36;98730.41;;;22.55;49.42
73016;BME280;61893;50.074;14.440;2023-05-20T11:12:02;98724.09;;;22.61;49.12
73016;BME280;61893;50.074;14.440;2023-05-20T11:14:44;98716.69;;;22.68;49.23
73016;BME280;61893;50.074;14.440;2023-05-20T11:17:10;98719.72;;;22.79;49.38
73016;BME280;61893;50.074;14.440;2023-05-20T11:19:36;98718.09;;;22.34;50.28
73016;BME280;61893;50.074;14.440;2023-05-20T11:22:02;98715.41;;;22.71;49.75
73016;BME280;61893;50.074;14.440;2023-05-20T11:24:28;98716.47;;;22.88;49.11
73016;BME280;61893;50.074;14.440;2023-05-20T11:26:55;98708.31;;;22.88;48.61
73016;BME280;61893;50.074;14.440;2023-05-20T11:29:21;98715.03;;;22.86;49.00
73016;BME280;61893;50.074;14.440;2023-05-20T11:31:51;98705.25;;;22.66;49.00
73016;BME280;61893;50.074;14.440;2023-05-20T11:34:38;98725.78;;;22.37;50.38
73016;BME280;61893;50.074;14.440;2023-05-20T11:37:08;98705.47;;;22.46;49.87
73016;BME280;61893;50.074;14.440;2023-05-20T11:39:36;98700.97;;;22.59;50.04
73016;BME280;61893;50.074;14.440;2023-05-20T11:42:02;98695.44;;;22.65;49.82
73016;BME280;61893;50.074;14.440;2023-05-20T11:44:31;98695.66;;;22.82;49.77
73016;BME280;61893;50.074;14.440;2023-05-20T11:47:23;98700.19;;;23.07;49.14
73016;BME280;61893;50.074;14.440;2023-05-20T11:49:55;98689.19;;;23.02;49.42
73016;BME280;61893;50.074;14.440;2023-05-20T11:52:23;98693.59;;;23.14;48.55
73016;BME280;61893;50.074;14.440;2023-05-20T11:54:52;98684.44;;;23.69;47.93
73016;BME280;61893;50.074;14.440;2023-05-20T11:57:21;98678.25;;;24.04;47.02
73016;BME280;61893;50.074;14.440;2023-05-20T11:59:48;98684.28;;;24.06;47.04
73016;BME280;61893;50.074;14.440;2023-05-20T12:02:20;98677.72;;;23.18;49.12
73016;BME280;61893;50.074;14.440;2023-05-20T12:04:49;98677.47;;;23.20;49.63
73016;BME280;61893;50.074;14.440;2023-05-20T12:07:29;98669.72;;;23.35;48.76
73016;BME280;61893;50.074;14.440;2023-05-20T12:10:18;98669.06;;;23.51;48.16
73016;BME280;61893;50.074;14.440;2023-05-20T12:12:44;98670.81;;;23.46;47.99
73016;BME280;61893;50.074;14.440;2023-05-20T12:15:10;98673.03;;;23.37;48.21
73016;BME280;61893;50.074;14.440;2023-05-20T12:17:45;98662.47;;;23.17;48.80
73016;BME280;61893;50.074;14.440;2023-05-20T12:20:13;98673.84;;;23.37;48.68
73016;BME280;61893;50.074;14.440;2023-05-20T12:22:40;98671.06;;;23.14;49.28
73016;BME280;61893;50.074;14.440;2023-05-20T12:25:25;98679.41;;;23.01;48.91
73016;BME280;61893;50.074;14.440;2023-05-20T12:27:52;98667.50;;;22.65;50.25
73016;BME280;61893;50.074;14.440;2023-05-20T12:30:23;98685.81;;;22.69;49.58
73016;BME280;61893;50.074;14.440;2023-05-20T12:32:50;98702.97;;;23.00;49.47
73016;BME280;61893;50.074;14.440;2023-05-20T12:35:38;98667.31;;;23.15;49.57
73016;BME280;61893;50.074;14.440;2023-05-20T12:38:11;98664.81;;;23.13;49.92
73016;BME280;61893;50.074;14.440;2023-05-20T12:40:54;98674.84;;;23.55;48.62
73016;BME280;61893;50.074;14.440;2023-05-20T12:43:20;98660.06;;;23.93;46.96
73016;BME280;61893;50.074;14.440;2023-05-20T12:45:48;98665.50;;;24.04;46.27
73016;BME280;61893;50.074;14.440;2023-05-20T12:48:15;98652.59;;;23.76;47.36
73016;BME280;61893;50.074;14.440;2023-05-20T12:51:01;98651.56;;;24.13;46.77
73016;BME280;61893;50.074;14.440;2023-05-20T12:53:26;98645.88;;;23.91;46.86
73016;BME280;61893;50.074;14.440;2023-05-20T12:55:52;98648.19;;;24.34;45.91
73016;BME280;61893;50.074;14.440;2023-05-20T12:58:37;98653.44;;;24.00;46.40
73016;BME280;61893;50.074;14.440;2023-05-20T13:01:09;98657.34;;;23.39;48.18
73016;BME280;61893;50.074;14.440;2023-05-20T13:03:34;98652.06;;;23.14;48.79
73016;BME280;61893;50.074;14.440;2023-05-20T13:06:15;98646.28;;;23.10;48.97
73016;BME280;61893;50.074;14.440;2023-05-20T13:08:41;98658.31;;;23.14;49.08
73016;BME280;61893;50.074;14.440;2023-05-20T13:11:07;98647.84;;;23.18;48.64